Time;durP1;ratioP1;P1;durP2;ratioP2;P2;SDS_P1;SDS_P2;PMS_P1;PMS_P2;Temp;Humidity;BMP_temperature;BMP_pressure;BME280_temperature;BME280_humidity;BME280_pressure;Samples;Min_cycle;Max_cycle;Signal;HPM_P1;HPM_P2
2022/10/30 00:01:39;;;;;;;15.00;5.55;;;;;;;14.18;81.27;100078.59;1704072;84;21026;-63
2022/10/30 00:04:08;;;;;;;11.15;5.90;;;;;;;14.17;81.36;100084.33;1700148;84;21062;-62
2022/10/30 00:06:38;;;;;;;10.70;6.05;;;;;;;14.15;81.40;100091.44;1699210;84;21051;-61
2022/10/30 00:09:07;;;;;;;14.07;6.00;;;;;;;14.15;81.34;100079.58;1704667;84;21089;-62
2022/10/30 00:11:37;;;;;;;15.20;6.03;;;;;;;14.14;81.25;100078.73;1699275;84;21039;-63
2022/10/30 00:14:06;;;;;;;15.75;5.40;;;;;;;14.14;81.15;100087.00;1693195;84;21069;-63
2022/10/30 00:16:35;;;;;;;12.65;6.00;;;;;;;14.14;81.13;100092.52;1703615;84;21078;-62
2022/10/30 00:19:04;;;;;;;15.32;5.87;;;;;;;14.13;81.13;100089.45;1707193;84;21537;-63
2022/10/30 00:21:35;;;;;;;13.43;5.85;;;;;;;14.12;81.14;100087.77;1702242;83;21098;-62
2022/10/30 00:24:07;;;;;;;10.50;5.75;;;;;;;14.12;81.06;100096.03;1702009;84;21020;-62
2022/10/30 00:26:37;;;;;;;14.63;5.50;;;;;;;14.13;80.95;100097.72;1702349;84;21015;-63
2022/10/30 00:29:06;;;;;;;10.90;5.25;;;;;;;14.14;80.89;100093.89;1702462;84;21460;-61
2022/10/30 00:31:37;;;;;;;11.35;5.22;;;;;;;14.15;80.67;100095.58;1704132;84;21026;-62
2022/10/30 00:34:06;;;;;;;12.00;5.37;;;;;;;14.13;80.46;100085.86;1708088;84;21040;-65
2022/10/30 00:36:38;;;;;;;9.88;5.40;;;;;;;14.12;80.17;100078.13;1701677;84;21077;-63
2022/10/30 00:39:07;;;;;;;11.20;4.78;;;;;;;14.11;80.05;100080.58;1703973;84;21097;-62
2022/10/30 00:41:38;;;;;;;9.33;5.03;;;;;;;14.10;79.92;100066.49;1704321;84;21065;-61
2022/10/30 00:44:46;;;;;;;11.10;5.20;;;;;;;14.12;79.69;100075.91;1704069;84;21039;-62
2022/10/30 00:47:26;;;;;;;6.95;4.53;;;;;;;14.10;79.45;100074.76;1699875;84;21065;-61
2022/10/30 00:50:08;;;;;;;9.20;5.22;;;;;;;14.09;79.00;100073.07;1696283;84;21442;-62
2022/10/30 00:52:45;;;;;;;11.12;4.72;;;;;;;14.09;78.58;100081.88;1704269;83;21053;-63
2022/10/30 00:55:18;;;;;;;8.08;4.70;;;;;;;14.07;78.39;100080.72;1713104;83;21100;-62
2022/10/30 00:57:49;;;;;;;8.83;5.20;;;;;;;14.07;78.31;100079.34;1714525;83;21025;-62
2022/10/30 01:00:21;;;;;;;8.73;4.72;;;;;;;14.06;78.12;100072.69;1713133;83;21080;-62
2022/10/30 01:02:52;;;;;;;7.72;4.97;;;;;;;14.05;77.92;100079.27;1713251;83;21065;-61
2022/10/30 01:05:22;;;;;;;7.58;4.47;;;;;;;14.05;77.69;100089.75;1711990;83;21056;-63
2022/10/30 01:07:53;;;;;;;13.90;4.70;;;;;;;14.05;77.43;100084.78;1712006;83;21045;-62
2022/10/30 01:10:23;;;;;;;7.70;4.42;;;;;;;14.04;77.28;100094.95;1715118;83;21022;-63
2022/10/30 01:12:53;;;;;;;7.60;4.10;;;;;;;14.03;77.10;100087.76;1712136;83;21053;-62
2022/10/30 01:15:32;;;;;;;8.78;4.65;;;;;;;14.03;77.07;100090.52;1711667;83;21021;-62
2022/10/30 01:18:25;;;;;;;8.78;4.42;;;;;;;14.02;76.93;100095.72;1708791;83;21518;-62
2022/10/30 01:21:20;;;;;;;9.50;4.08;;;;;;;14.02;76.92;100086.08;1711473;83;21053;-61
2022/10/30 01:24:13;;;;;;;8.03;4.65;;;;;;;14.03;76.87;100082.25;1716769;83;21515;-63
2022/10/30 01:27:07;;;;;;;11.50;4.42;;;;;;;14.01;76.87;100078.88;1712215;83;21093;-63
2022/10/30 01:29:45;;;;;;;9.20;4.90;;;;;;;14.01;76.74;100072.00;1709699;83;21493;-63
2022/10/30 01:32:38;;;;;;;8.03;4.53;;;;;;;13.99;76.50;100057.61;1712063;83;21049;-63
2022/10/30 01:35:19;;;;;;;7.83;3.83;;;;;;;13.98;76.53;100057.84;1714735;83;21049;-63
2022/10/30 01:38:02;;;;;;;10.82;4.20;;;;;;;13.97;76.46;100043.22;1708910;83;21069;-64
2022/10/30 01:40:33;;;;;;;8.18;4.05;;;;;;;13.98;76.54;100041.31;1709547;83;21501;-64
2022/10/30 01:43:01;;;;;;;8.25;4.75;;;;;;;13.96;76.42;100037.41;1713347;83;21056;-63
2022/10/30 01:45:43;;;;;;;7.65;4.83;;;;;;;13.94;76.40;100054.70;1709260;83;21033;-63
2022/10/30 01:49:01;;;;;;;8.70;4.20;;;;;;;13.93;76.42;100065.41;1714690;83;21001;-62
2022/10/30 01:52:03;;;;;;;9.78;3.95;;;;;;;13.94;76.40;100068.47;1709997;83;21077;-64
2022/10/30 01:55:01;;;;;;;9.93;4.80;;;;;;;13.94;76.31;100072.60;1682255;84;21109;-63
2022/10/30 01:57:54;;;;;;;11.22;3.55;;;;;;;13.92;76.35;100073.36;1691375;84;21030;-63
2022/10/30 02:00:24;;;;;;;8.65;4.78;;;;;;;13.90;76.31;100076.34;1688855;84;21033;-62
2022/10/30 02:02:54;;;;;;;7.22;3.90;;;;;;;13.87;76.32;100082.84;1676335;84;21469;-64
2022/10/30 02:05:43;;;;;;;6.28;3.67;;;;;;;13.85;76.24;100089.95;1692569;84;21073;-63
2022/10/30 02:08:12;;;;;;;6.67;4.08;;;;;;;13.84;76.30;100082.77;1695517;84;21061;-63
2022/10/30 02:10:44;;;;;;;10.15;4.47;;;;;;;13.84;76.34;100076.41;1692140;84;21457;-62
2022/10/30 02:13:13;;;;;;;8.35;4.30;;;;;;;13.82;76.30;100064.78;1659602;85;21053;-62
2022/10/30 02:15:45;;;;;;;8.55;4.17;;;;;;;13.79;76.41;100067.45;1691110;84;21002;-62
2022/10/30 02:18:14;;;;;;;7.53;3.70;;;;;;;13.78;76.38;100085.05;1666461;84;21092;-63
2022/10/30 02:20:43;;;;;;;9.78;4.12;;;;;;;13.79;76.45;100094.15;1683283;84;21510;-63
2022/10/30 02:23:17;;;;;;;7.45;4.30;;;;;;;13.79;76.55;100098.28;1692578;84;21052;-63
2022/10/30 02:25:45;;;;;;;8.35;4.05;;;;;;;13.78;76.56;100096.59;1683462;84;21516;-62
2022/10/30 02:28:17;;;;;;;8.48;3.77;;;;;;;13.76;76.57;100087.18;1692271;84;21050;-63
2022/10/30 02:30:48;;;;;;;8.65;3.77;;;;;;;13.77;76.60;100102.63;1683296;84;21021;-63
2022/10/30 02:33:19;;;;;;;8.88;4.20;;;;;;;13.77;76.65;100093.00;1693805;84;20994;-64
2022/10/30 02:35:51;;;;;;;9.63;4.15;;;;;;;13.76;76.74;100098.20;1693561;84;21069;-63
2022/10/30 02:38:21;;;;;;;10.85;4.28;;;;;;;13.75;76.74;100088.78;1686475;84;21049;-62
2022/10/30 02:40:51;;;;;;;11.53;4.40;;;;;;;13.72;76.74;100101.63;1688907;84;21073;-62
2022/10/30 02:43:21;;;;;;;7.35;4.05;;;;;;;13.70;76.83;100112.02;1688771;84;21093;-64
2022/10/30 02:45:51;;;;;;;6.70;3.65;;;;;;;13.68;76.85;100112.78;1690431;84;21098;-62
2022/10/30 02:48:22;;;;;;;7.20;3.67;;;;;;;13.68;76.85;100114.16;1692397;84;21026;-62
2022/10/30 02:50:52;;;;;;;6.70;3.80;;;;;;;13.65;76.95;100119.55;1691823;84;20986;-62
2022/10/30 02:53:22;;;;;;;8.43;4.40;;;;;;;13.64;77.03;100110.45;1688593;82;21053;-62
2022/10/30 02:55:51;;;;;;;10.13;4.75;;;;;;;13.62;76.97;100110.36;1703771;84;21081;-62
2022/10/30 02:58:22;;;;;;;7.80;3.50;;;;;;;13.61;77.08;100115.56;1701492;84;21011;-61
2022/10/30 03:00:51;;;;;;;8.55;3.70;;;;;;;13.58;77.11;100123.73;1705445;84;21010;-61
2022/10/30 03:03:21;;;;;;;7.05;4.20;;;;;;;13.57;77.24;100119.83;1702155;84;21043;-62
2022/10/30 03:05:52;;;;;;;10.78;4.22;;;;;;;13.55;77.28;100118.68;1702176;84;21455;-65
2022/10/30 03:08:22;;;;;;;10.03;4.17;;;;;;;13.54;77.27;100121.13;1701669;84;21058;-61
2022/10/30 03:10:51;;;;;;;10.15;4.33;;;;;;;13.55;77.24;100114.55;1702270;84;21098;-62
2022/10/30 03:13:21;;;;;;;8.73;3.58;;;;;;;13.53;77.20;100111.17;1692689;84;21057;-62
2022/10/30 03:15:50;;;;;;;7.47;3.77;;;;;;;13.54;77.27;100110.64;1704389;84;21068;-63
2022/10/30 03:18:19;;;;;;;6.72;3.90;;;;;;;13.53;77.21;100107.05;1702933;84;21027;-63
2022/10/30 03:20:49;;;;;;;6.92;3.72;;;;;;;13.51;77.08;100106.43;1700913;84;21040;-62
2022/10/30 03:23:18;;;;;;;10.13;3.58;;;;;;;13.49;77.11;100111.85;1704287;84;21005;-63
2022/10/30 03:25:47;;;;;;;8.13;3.50;;;;;;;13.46;77.13;100104.88;1701010;84;21090;-62
2022/10/30 03:28:16;;;;;;;7.40;3.62;;;;;;;13.46;77.16;100103.51;1702486;84;21574;-62
2022/10/30 03:30:45;;;;;;;8.15;3.67;;;;;;;13.44;77.20;100102.05;1704077;84;21055;-62
2022/10/30 03:33:15;;;;;;;10.25;4.20;;;;;;;13.43;77.32;100114.96;1704332;84;20989;-63
2022/10/30 03:35:44;;;;;;;9.38;4.08;;;;;;;13.41;77.31;100112.13;1690915;84;21424;-63
2022/10/30 03:38:14;;;;;;;8.95;3.90;;;;;;;13.37;77.39;100118.61;1701025;84;21454;-63
2022/10/30 03:40:43;;;;;;;9.00;3.65;;;;;;;13.37;77.37;100115.02;1704062;84;21523;-62
2022/10/30 03:43:12;;;;;;;8.73;3.90;;;;;;;13.35;77.42;100117.98;1709178;84;21433;-63
2022/10/30 03:45:48;;;;;;;9.43;3.87;;;;;;;13.34;77.55;100119.05;1704027;84;21063;-63
2022/10/30 03:48:21;;;;;;;7.58;4.00;;;;;;;13.33;77.66;100128.37;1704230;84;21076;-63
2022/10/30 03:50:57;;;;;;;7.50;3.70;;;;;;;13.32;77.71;100115.68;1704039;84;21090;-62
2022/10/30 03:53:27;;;;;;;9.83;4.20;;;;;;;13.29;77.76;100110.63;1702139;84;21030;-64
2022/10/30 03:55:59;;;;;;;10.20;4.00;;;;;;;13.26;77.79;100120.17;1712586;83;21069;-63
2022/10/30 03:58:29;;;;;;;7.70;3.90;;;;;;;13.26;77.88;100126.20;1713227;83;21005;-65
2022/10/30 04:01:03;;;;;;;7.30;3.55;;;;;;;13.25;77.89;100120.39;1713117;83;21079;-62
2022/10/30 04:03:36;;;;;;;8.25;4.05;;;;;;;13.24;77.78;100114.58;1713924;83;21072;-62
2022/10/30 04:06:08;;;;;;;8.25;3.60;;;;;;;13.23;77.75;100114.27;1712143;83;21080;-63
2022/10/30 04:08:39;;;;;;;12.07;3.17;;;;;;;13.21;77.67;100120.52;1713161;83;21042;-63
2022/10/30 04:11:10;;;;;;;7.90;3.65;;;;;;;13.18;77.50;100117.69;1688918;83;21097;-63
2022/10/30 04:13:42;;;;;;;7.62;3.35;;;;;;;13.16;77.45;100118.94;1714299;83;21033;-62
2022/10/30 04:16:12;;;;;;;6.97;3.77;;;;;;;13.16;77.47;100116.19;1709148;83;21093;-64
2022/10/30 04:18:42;;;;;;;10.08;3.70;;;;;;;13.16;77.22;100112.91;1708738;83;21045;-63
2022/10/30 04:21:14;;;;;;;8.25;3.37;;;;;;;13.15;76.87;100105.72;1708790;83;21533;-62
2022/10/30 04:23:44;;;;;;;5.92;3.40;;;;;;;13.17;76.71;100114.63;1711925;83;21017;-62
2022/10/30 04:26:14;;;;;;;10.18;3.70;;;;;;;13.18;76.63;100110.80;1712070;83;21088;-64
2022/10/30 04:28:47;;;;;;;7.08;3.85;;;;;;;13.15;76.60;100107.09;1713986;83;21545;-63
2022/10/30 04:31:17;;;;;;;8.53;3.40;;;;;;;13.16;76.44;100111.53;1712538;83;20993;-62
2022/10/30 04:33:47;;;;;;;8.23;3.35;;;;;;;13.14;76.11;100118.31;1714547;83;21041;-61
2022/10/30 04:36:17;;;;;;;11.75;3.10;;;;;;;13.12;76.00;100118.53;1711680;83;21076;-64
2022/10/30 04:38:46;;;;;;;7.47;3.27;;;;;;;13.13;75.01;100124.34;1705085;83;21497;-65
2022/10/30 04:41:16;;;;;;;7.70;3.15;;;;;;;13.15;74.76;100124.13;1713227;83;21009;-64
2022/10/30 04:43:50;;;;;;;6.83;3.08;;;;;;;13.14;74.72;100129.31;1701758;83;21073;-63
2022/10/30 04:46:19;;;;;;;4.50;3.20;;;;;;;13.15;74.71;100124.97;1710259;83;21485;-63
2022/10/30 04:48:49;;;;;;;6.47;3.72;;;;;;;13.17;74.79;100127.00;1712083;83;21061;-64
2022/10/30 04:51:20;;;;;;;6.83;3.10;;;;;;;13.17;74.47;100122.03;1711971;83;21473;-62
2022/10/30 04:53:49;;;;;;;6.72;2.95;;;;;;;13.17;73.93;100135.25;1714662;83;21491;-63
2022/10/30 04:56:18;;;;;;;8.85;3.10;;;;;;;13.17;73.79;100130.28;1729073;83;21044;-63
2022/10/30 04:58:48;;;;;;;5.45;2.90;;;;;;;13.17;73.72;100139.91;1729509;83;20997;-62
2022/10/30 05:01:19;;;;;;;6.33;3.00;;;;;;;13.17;73.73;100135.78;1729537;83;21088;-62
2022/10/30 05:03:48;;;;;;;4.75;3.02;;;;;;;13.16;73.76;100141.79;1729532;83;20992;-65
2022/10/30 05:06:24;;;;;;;7.95;2.45;;;;;;;13.15;73.73;100144.23;1729415;83;21076;-64
2022/10/30 05:08:55;;;;;;;8.88;2.62;;;;;;;13.16;73.45;100147.29;1729474;83;21028;-63
2022/10/30 05:11:29;;;;;;;6.92;2.70;;;;;;;13.15;73.23;100148.89;1728374;83;21092;-62
2022/10/30 05:13:59;;;;;;;4.30;2.47;;;;;;;13.16;72.85;100158.30;1729264;83;21109;-62
2022/10/30 05:16:30;;;;;;;6.25;2.80;;;;;;;13.16;72.59;100158.83;1729621;83;21052;-63
2022/10/30 05:19:01;;;;;;;7.37;3.05;;;;;;;13.15;72.53;100165.39;1729725;83;21069;-63
2022/10/30 05:21:32;;;;;;;5.70;2.98;;;;;;;13.16;72.25;100155.55;1729932;83;21044;-62
2022/10/30 05:24:02;;;;;;;7.97;2.65;;;;;;;13.15;72.03;100166.23;1729505;83;21464;-62
2022/10/30 05:26:34;;;;;;;5.05;2.70;;;;;;;13.14;71.66;100167.30;1717986;83;21096;-62
2022/10/30 05:29:05;;;;;;;8.00;2.37;;;;;;;13.13;71.24;100169.73;1669630;86;21636;-63
2022/10/30 05:31:34;;;;;;;4.90;2.30;;;;;;;13.13;71.14;100179.90;1668819;86;21832;-65
2022/10/30 05:34:08;;;;;;;10.23;2.80;;;;;;;13.12;71.06;100171.33;1668765;86;21063;-62
2022/10/30 05:36:39;;;;;;;7.92;2.75;;;;;;;13.11;70.78;100177.36;1668655;86;21116;-62
2022/10/30 05:39:09;;;;;;;8.73;3.02;;;;;;;13.12;70.76;100181.80;1668814;86;21120;-62
2022/10/30 05:41:41;;;;;;;8.35;2.65;;;;;;;13.14;70.54;100187.09;1668717;86;21131;-62
2022/10/30 05:44:11;;;;;;;9.88;2.70;;;;;;;13.14;70.13;100187.09;1668778;86;21081;-64
2022/10/30 05:46:42;;;;;;;4.53;2.00;;;;;;;13.15;69.75;100197.03;1684755;83;21091;-63
2022/10/30 05:49:26;;;;;;;5.50;2.20;;;;;;;13.15;69.81;100192.38;1728748;81;21080;-64
2022/10/30 05:51:57;;;;;;;5.50;2.30;;;;;;;13.15;69.03;100201.16;1718054;83;21039;-62
2022/10/30 05:54:27;;;;;;;5.50;2.40;;;;;;;13.13;68.93;100198.62;1727166;83;21060;-62
2022/10/30 05:57:01;;;;;;;6.28;2.20;;;;;;;13.14;68.91;100200.31;1704468;83;21072;-62
2022/10/30 05:59:31;;;;;;;4.58;2.05;;;;;;;13.16;68.78;100200.09;1713691;83;21121;-63
2022/10/30 06:01:59;;;;;;;5.83;2.75;;;;;;;13.17;68.56;100204.56;1711915;83;21094;-63
2022/10/30 06:04:30;;;;;;;4.45;2.40;;;;;;;13.17;68.77;100210.91;1711863;83;21100;-63
2022/10/30 06:07:01;;;;;;;7.35;2.40;;;;;;;13.18;69.09;100215.88;1711910;83;21025;-62
2022/10/30 06:09:29;;;;;;;6.55;2.27;;;;;;;13.19;69.22;100217.03;1711935;83;21081;-63
2022/10/30 06:12:01;;;;;;;7.75;2.33;;;;;;;13.20;69.29;100211.00;1699593;83;21085;-63
2022/10/30 06:14:36;;;;;;;5.25;1.90;;;;;;;13.21;69.01;100221.78;1635106;88;21082;-62
2022/10/30 06:17:07;;;;;;;7.53;2.58;;;;;;;13.20;68.56;100216.50;1576888;91;21186;-63
2022/10/30 06:19:53;;;;;;;4.35;2.02;;;;;;;13.20;67.98;100218.72;1551060;91;21108;-62
2022/10/30 06:22:30;;;;;;;4.95;1.95;;;;;;;13.24;68.04;100221.88;1823720;77;22643;-62
2022/10/30 06:25:02;;;;;;;6.60;2.20;;;;;;;13.20;67.71;100222.84;1758546;80;21111;-63
2022/10/30 06:27:36;;;;;;;4.92;1.82;;;;;;;13.18;67.71;100226.88;1768848;80;21099;-62
2022/10/30 06:30:07;;;;;;;5.47;1.80;;;;;;;13.18;67.62;100229.63;1769155;80;21213;-62
2022/10/30 06:32:38;;;;;;;4.17;1.80;;;;;;;13.17;66.80;100232.07;1730986;82;21126;-62
2022/10/30 06:35:09;;;;;;;6.15;1.70;;;;;;;13.14;65.86;100218.72;1724127;81;21159;-63
2022/10/30 06:37:47;;;;;;;9.00;1.90;;;;;;;13.13;65.31;100220.63;1717045;82;21598;-63
2022/10/30 06:40:17;;;;;;;6.42;1.57;;;;;;;13.15;65.24;100220.41;1729100;82;21577;-62
2022/10/30 06:42:51;;;;;;;5.08;1.85;;;;;;;13.16;64.61;100232.57;1731633;82;21102;-63
2022/10/30 06:45:24;;;;;;;7.08;1.80;;;;;;;13.19;64.23;100227.20;1712794;82;21575;-62
2022/10/30 06:47:55;;;;;;;3.92;1.45;;;;;;;13.20;63.70;100227.51;1725550;82;21127;-63
2022/10/30 06:50:25;;;;;;;5.58;1.90;;;;;;;13.22;63.65;100232.26;1725939;82;21178;-63
2022/10/30 06:52:56;;;;;;;9.03;1.70;;;;;;;13.26;63.62;100228.85;1736715;82;21214;-63
2022/10/30 06:55:26;;;;;;;3.62;1.65;;;;;;;13.27;63.65;100237.95;1734024;82;21519;-67
2022/10/30 06:58:15;;;;;;;3.52;1.47;;;;;;;13.27;63.52;100233.29;1710687;82;21669;-62
2022/10/30 07:00:46;;;;;;;5.20;1.35;;;;;;;13.29;63.34;100232.54;1724794;82;21147;-65
2022/10/30 07:03:33;;;;;;;;;;;;;;;13.30;63.41;100238.89;1731501;82;21142;-62
2022/10/30 07:06:03;;;;;;;4.58;1.77;;;;;;;13.32;63.62;100238.14;1736434;82;20275;-62
2022/10/30 07:08:33;;;;;;;6.87;2.33;;;;;;;13.33;63.71;100241.20;1727244;82;21173;-61
2022/10/30 07:11:04;;;;;;;5.35;2.02;;;;;;;13.36;63.83;100255.05;1666126;85;21554;-62
2022/10/30 07:13:52;;;;;;;4.35;1.67;;;;;;;13.37;63.69;100252.08;1670781;85;21681;-62
2022/10/30 07:16:38;;;;;;;7.37;1.60;;;;;;;13.33;62.98;100254.42;1664853;86;21267;-63
2022/10/30 07:19:08;;;;;;;5.53;1.35;;;;;;;13.27;62.51;100246.20;1661413;86;21198;-62
2022/10/30 07:21:39;;;;;;;4.05;1.30;;;;;;;13.24;62.24;100252.14;1655139;86;21181;-62
2022/10/30 07:24:09;;;;;;;4.08;1.30;;;;;;;13.22;62.49;100244.11;1696999;83;21675;-64
2022/10/30 07:26:47;;;;;;;7.42;1.70;;;;;;;13.21;62.69;100236.92;1697583;84;21656;-63
2022/10/30 07:29:25;;;;;;;4.65;1.40;;;;;;;13.24;62.56;100235.64;1728020;81;21118;-62
2022/10/30 07:32:09;;;;;;;4.08;1.10;;;;;;;13.26;62.52;100244.52;1698476;82;21163;-63
2022/10/30 07:34:46;;;;;;;4.47;1.17;;;;;;;13.26;62.04;100249.48;1714109;82;21581;-62
2022/10/30 07:37:35;;;;;;;5.22;1.72;;;;;;;13.25;61.59;100245.05;1709645;83;21221;-65
2022/10/30 07:40:10;;;;;;;4.97;1.52;;;;;;;13.25;61.73;100240.08;1706934;83;21146;-63
2022/10/30 07:42:46;;;;;;;4.37;1.98;;;;;;;13.23;61.63;100239.45;1718008;81;21186;-62
2022/10/30 07:45:30;;;;;;;4.70;1.60;;;;;;;13.22;61.83;100241.89;1709738;83;21222;-62
2022/10/30 07:48:18;;;;;;;6.05;1.70;;;;;;;13.21;61.91;100236.08;1713625;83;21126;-61
2022/10/30 07:50:50;;;;;;;4.75;1.67;;;;;;;13.18;62.25;100240.64;1710243;82;21138;-63
2022/10/30 07:53:21;;;;;;;4.12;1.27;;;;;;;13.18;62.28;100231.01;1722693;83;21095;-63
2022/10/30 07:55:51;;;;;;;3.65;1.45;;;;;;;13.18;62.22;100239.27;1698773;83;21129;-61
2022/10/30 07:58:39;;;;;;;3.70;1.52;;;;;;;13.15;62.33;100231.41;1709240;83;21115;-68
2022/10/30 08:01:13;;;;;;;5.28;1.60;;;;;;;13.13;62.46;100229.41;1709036;83;21684;-63
2022/10/30 08:03:44;;;;;;;4.00;1.40;;;;;;;13.11;62.65;100223.28;1721104;82;21566;-64
2022/10/30 08:06:18;;;;;;;3.37;1.07;;;;;;;13.12;62.73;100249.20;1719370;83;21182;-62
2022/10/30 08:08:51;;;;;;;5.37;1.37;;;;;;;13.11;62.55;100239.26;1697143;83;21126;-64
2022/10/30 08:11:29;;;;;;;3.42;1.22;;;;;;;13.11;62.61;100246.67;1701711;83;21130;-66
2022/10/30 08:14:00;;;;;;;4.83;1.50;;;;;;;13.11;62.88;100241.17;1701530;83;21208;-63
2022/10/30 08:16:30;;;;;;;5.17;1.57;;;;;;;13.10;62.88;100249.95;1707009;83;21122;-63
2022/10/30 08:19:00;;;;;;;3.35;1.10;;;;;;;13.10;62.84;100254.61;1720941;83;21605;-65
2022/10/30 08:21:30;;;;;;;5.70;1.72;;;;;;;13.09;62.87;100244.66;1722188;80;21238;-63
2022/10/30 08:24:01;;;;;;;3.55;1.20;;;;;;;13.10;63.08;100257.36;1762250;80;21535;-63
2022/10/30 08:26:34;;;;;;;4.92;1.35;;;;;;;13.12;62.98;100251.11;1755282;80;21096;-62
2022/10/30 08:29:04;;;;;;;5.37;1.32;;;;;;;13.16;63.06;100265.59;1729415;81;21171;-63
2022/10/30 08:31:34;;;;;;;11.08;1.50;;;;;;;13.17;62.72;100257.67;1761250;80;21092;-63
2022/10/30 08:34:04;;;;;;;3.10;1.32;;;;;;;13.18;62.93;100251.64;1777900;80;21182;-62
2022/10/30 08:36:38;;;;;;;4.90;1.40;;;;;;;13.20;63.08;100254.48;1762360;80;21144;-62
2022/10/30 08:39:07;;;;;;;4.45;1.30;;;;;;;13.25;63.12;100255.20;1762605;80;21127;-62
2022/10/30 08:41:48;;;;;;;3.52;1.20;;;;;;;13.27;63.06;100254.45;1754158;80;21194;-63
2022/10/30 08:44:21;;;;;;;6.08;1.22;;;;;;;13.32;62.77;100256.02;1755104;80;21115;-63
2022/10/30 08:47:08;;;;;;;3.27;1.27;;;;;;;13.32;62.68;100260.15;1732374;82;21110;-63
2022/10/30 08:49:40;;;;;;;3.05;1.02;;;;;;;13.32;62.63;100258.77;1752075;80;21135;-63
2022/10/30 08:52:09;;;;;;;3.02;1.20;;;;;;;13.32;62.54;100266.50;1754962;81;21625;-63
2022/10/30 08:54:41;;;;;;;3.75;1.10;;;;;;;13.31;62.24;100265.34;1776879;80;21482;-63
2022/10/30 08:57:12;;;;;;;4.15;1.40;;;;;;;13.27;62.11;100274.56;1711735;82;21095;-64
2022/10/30 08:59:41;;;;;;;4.97;1.30;;;;;;;13.26;62.16;100270.13;1711936;82;21190;-64
2022/10/30 09:02:13;;;;;;;5.33;1.20;;;;;;;13.28;62.06;100264.40;1767278;80;21108;-66
2022/10/30 09:05:01;;;;;;;3.62;1.20;;;;;;;13.28;62.03;100265.77;1727869;82;21237;-63
2022/10/30 09:07:43;;;;;;;2.20;1.00;;;;;;;13.27;61.87;100263.56;1754123;80;21532;-62
2022/10/30 09:10:19;;;;;;;7.42;1.30;;;;;;;13.28;61.94;100257.52;1744806;80;21197;-62
2022/10/30 09:12:56;;;;;;;4.53;1.32;;;;;;;13.27;62.04;100262.71;1699354;83;21150;-63
2022/10/30 09:15:27;;;;;;;4.40;1.25;;;;;;;13.27;61.88;100251.70;1768944;80;21108;-62
2022/10/30 09:17:59;;;;;;;4.22;1.12;;;;;;;13.27;62.01;100254.45;1740644;82;21115;-63
2022/10/30 09:20:32;;;;;;;5.72;1.20;;;;;;;13.28;62.14;100261.65;1756738;80;21124;-63
2022/10/30 09:23:01;;;;;;;4.53;1.42;;;;;;;13.30;61.95;100244.39;1762367;80;21088;-68
2022/10/30 09:25:32;;;;;;;5.00;1.20;;;;;;;13.30;61.64;100247.14;1763490;81;21087;-62
2022/10/30 09:28:15;;;;;;;4.30;1.40;;;;;;;13.30;61.86;100251.27;1759916;80;21175;-64
2022/10/30 09:30:51;;;;;;;3.77;1.52;;;;;;;13.30;62.20;100252.64;1718471;82;21201;-63
2022/10/30 09:33:20;;;;;;;4.00;1.15;;;;;;;13.33;62.22;100252.20;1707495;84;21150;-64
2022/10/30 09:35:58;;;;;;;4.83;1.30;;;;;;;13.37;62.36;100252.61;1721587;82;21170;-62
2022/10/30 09:38:28;;;;;;;4.80;1.55;;;;;;;13.42;62.11;100246.76;1720678;82;21232;-65
2022/10/30 09:41:16;;;;;;;6.65;1.20;;;;;;;13.47;61.76;100252.98;1710984;82;21197;-63
2022/10/30 09:44:07;;;;;;;4.53;1.15;;;;;;;13.50;61.42;100251.16;1714742;82;21158;-63
2022/10/30 09:46:53;;;;;;;4.87;1.37;;;;;;;13.52;61.28;100245.75;1724057;82;21098;-63
2022/10/30 09:49:43;;;;;;;6.97;1.85;;;;;;;13.49;61.54;100253.06;1734248;82;21790;-63
2022/10/30 09:52:28;;;;;;;6.60;1.35;;;;;;;13.49;61.52;100247.56;1706025;82;21206;-64
2022/10/30 09:55:24;;;;;;;3.25;1.00;;;;;;;13.47;61.22;100241.44;1706537;82;21574;-63
2022/10/30 09:58:18;;;;;;;5.40;1.32;;;;;;;13.47;61.54;100252.45;1732101;82;21158;-64
2022/10/30 10:01:12;;;;;;;5.75;1.40;;;;;;;13.49;61.56;100253.60;1708956;82;21205;-65
2022/10/30 10:04:01;;;;;;;5.33;1.42;;;;;;;13.49;61.60;100247.56;1722570;82;21180;-67
2022/10/30 10:06:33;;;;;;;5.90;1.20;;;;;;;13.52;61.63;100240.23;1704485;82;21086;-65
2022/10/30 10:09:09;;;;;;;5.37;1.10;;;;;;;13.52;61.23;100242.99;1724055;82;21196;-63
2022/10/30 10:12:09;;;;;;;6.95;1.37;;;;;;;13.52;61.43;100236.11;1715179;82;21138;-64
2022/10/30 10:14:44;;;;;;;5.92;1.20;;;;;;;13.54;61.65;100236.73;1752119;80;21131;-64
2022/10/30 10:17:19;;;;;;;5.28;1.62;;;;;;;13.54;61.30;100238.11;1721491;82;21122;-66
2022/10/30 10:19:59;;;;;;;5.12;1.37;;;;;;;13.53;61.44;100237.80;1643633;85;21117;-65
2022/10/30 10:22:42;;;;;;;4.92;1.40;;;;;;;13.56;61.51;100240.64;1710964;83;21148;-65
2022/10/30 10:25:14;;;;;;;6.47;1.47;;;;;;;13.57;61.47;100239.05;1692616;83;21219;-64
2022/10/30 10:28:01;;;;;;;7.15;1.40;;;;;;;13.60;61.52;100233.63;1713860;83;21190;-62
2022/10/30 10:30:42;;;;;;;2.92;1.02;;;;;;;13.61;61.30;100232.56;1714187;82;21118;-65
2022/10/30 10:33:24;;;;;;;3.92;1.10;;;;;;;13.59;60.91;100235.54;1632714;87;21111;-66
2022/10/30 10:36:02;;;;;;;3.00;1.07;;;;;;;13.60;61.24;100237.22;1711246;83;21227;-63
2022/10/30 10:38:46;;;;;;;2.20;1.05;;;;;;;13.61;61.03;100235.31;1756023;80;21162;-63
2022/10/30 10:41:52;;;;;;;3.90;1.30;;;;;;;13.62;60.96;100230.13;1733128;82;21122;-64
2022/10/30 10:44:32;;;;;;;6.85;1.30;;;;;;;13.62;61.14;100236.47;1697506;83;21474;-65
2022/10/30 10:47:15;;;;;;;5.22;1.20;;;;;;;13.64;61.03;100232.12;1772408;80;21151;-64
2022/10/30 10:50:21;;;;;;;5.35;1.20;;;;;;;13.67;61.06;100235.00;1757151;80;21165;-65
2022/10/30 10:53:01;;;;;;;5.22;1.40;;;;;;;13.69;60.59;100225.98;1752046;80;21150;-67
2022/10/30 10:55:35;;;;;;;3.98;1.17;;;;;;;13.71;60.66;100215.59;1692128;83;21177;-65
2022/10/30 10:58:29;;;;;;;4.10;1.00;;;;;;;13.71;60.33;100216.43;1764493;80;21131;-65
2022/10/30 11:00:58;;;;;;;3.98;1.20;;;;;;;13.71;60.44;100216.96;1719696;82;21130;-67
2022/10/30 11:03:32;;;;;;;3.92;1.57;;;;;;;13.74;60.61;100210.48;1769173;79;21650;-63
2022/10/30 11:06:26;;;;;;;5.08;1.75;;;;;;;13.77;60.41;100211.94;1751604;80;21197;-64
2022/10/30 11:09:18;;;;;;;5.75;1.45;;;;;;;13.78;60.54;100203.98;1754702;80;21636;-64
2022/10/30 11:11:48;;;;;;;5.83;1.37;;;;;;;13.78;60.51;100211.72;1777144;80;21587;-68
2022/10/30 11:14:22;;;;;;;7.75;1.40;;;;;;;13.78;60.57;100203.45;1758191;80;21567;-68
2022/10/30 11:17:14;;;;;;;5.17;1.50;;;;;;;13.80;60.68;100198.56;1769282;80;21079;-65
2022/10/30 11:19:44;;;;;;;4.28;1.40;;;;;;;13.83;60.54;100201.41;1759596;80;21182;-64
2022/10/30 11:22:23;;;;;;;4.05;1.25;;;;;;;13.86;60.30;100196.83;1761471;79;21474;-65
2022/10/30 11:24:52;;;;;;;;;;;;;;;13.84;60.17;100176.40;1746337;81;21167;-64
2022/10/30 11:27:27;;;;;;;7.05;1.62;;;;;;;13.83;60.47;100187.11;1748398;81;20148;-65
2022/10/30 11:30:04;;;;;;;4.83;1.50;;;;;;;13.85;60.59;100190.48;1737048;82;21158;-65
2022/10/30 11:32:33;;;;;;;4.95;1.37;;;;;;;13.88;60.28;100183.14;1744070;81;21166;-63
2022/10/30 11:35:11;;;;;;;3.33;1.20;;;;;;;13.89;59.81;100187.59;1705911;82;21691;-65
2022/10/30 11:37:42;;;;;;;5.37;0.98;;;;;;;13.89;59.82;100180.70;1697764;84;21111;-65
2022/10/30 11:40:22;;;;;;;6.25;1.40;;;;;;;13.90;59.49;100170.52;1695989;84;21158;-64
2022/10/30 11:42:59;;;;;;;5.33;1.25;;;;;;;13.90;59.65;100171.91;1759687;81;21375;-66
2022/10/30 11:45:40;;;;;;;3.37;1.20;;;;;;;13.92;59.69;100172.52;1757090;81;21103;-64
2022/10/30 11:48:20;;;;;;;3.40;1.25;;;;;;;13.95;59.53;100178.95;1773805;80;21084;-66
2022/10/30 11:50:51;;;;;;;3.20;1.20;;;;;;;13.96;59.24;100179.27;1749241;81;21102;-65
2022/10/30 11:53:37;;;;;;;4.70;1.30;;;;;;;13.94;59.07;100168.47;1723786;82;21103;-65
2022/10/30 11:56:16;;;;;;;6.17;1.50;;;;;;;13.93;58.80;100178.34;1708883;82;21162;-67
2022/10/30 11:58:51;;;;;;;3.58;1.12;;;;;;;13.94;58.75;100178.11;1755267;81;21942;-65
2022/10/30 12:01:34;;;;;;;6.03;1.40;;;;;;;13.94;58.59;100169.00;1753566;81;21111;-65